createdAt,value
2019-02-24T00:02:23.243Z,63.63
2019-02-24T00:04:50.756Z,128.73
2019-02-24T00:07:18.302Z,127.13
2019-02-24T00:09:45.804Z,77.97
2019-02-24T00:12:13.321Z,48.43
2019-02-24T00:14:40.849Z,43.13
2019-02-24T00:17:08.345Z,52.73
2019-02-24T00:19:35.831Z,53.83
2019-02-24T00:22:03.479Z,54.47
2019-02-24T00:24:30.973Z,39.23
2019-02-24T00:26:58.519Z,41.70
2019-02-24T00:29:26.077Z,43.87
2019-02-24T00:31:53.593Z,47.73
2019-02-24T00:34:21.085Z,47.37
2019-02-24T00:36:48.632Z,58.73
2019-02-24T00:39:16.114Z,50.40
2019-02-24T00:41:43.613Z,42.60
2019-02-24T00:44:11.163Z,41.97
2019-02-24T00:46:38.657Z,41.43
2019-02-24T00:49:06.214Z,51.87
2019-02-24T00:51:33.743Z,45.67
2019-02-24T00:54:01.251Z,45.40
2019-02-24T00:56:28.741Z,49.13
2019-02-24T00:58:56.260Z,49.50
2019-02-24T01:01:23.795Z,43.03
2019-02-24T01:03:51.291Z,51.87
2019-02-24T01:06:18.777Z,58.17
2019-02-24T01:08:46.351Z,50.13
2019-02-24T01:11:13.845Z,44.37
2019-02-24T01:13:41.345Z,48.27
2019-02-24T01:16:08.858Z,41.57
2019-02-24T01:18:36.593Z,40.50
2019-02-24T01:21:04.095Z,49.17
2019-02-24T01:23:31.611Z,44.77
2019-02-24T01:25:59.163Z,44.90
2019-02-24T01:28:27.361Z,39.53
2019-02-24T01:30:54.839Z,39.10
2019-02-24T01:33:22.353Z,41.63
2019-02-24T01:35:49.875Z,50.90
2019-02-24T01:38:17.429Z,53.80
2019-02-24T01:40:44.935Z,42.73
2019-02-24T01:43:12.431Z,44.40
2019-02-24T01:45:40.081Z,42.43
2019-02-24T01:48:07.661Z,44.30
2019-02-24T01:50:35.179Z,41.63
2019-02-24T01:53:02.662Z,41.50
2019-02-24T01:55:30.205Z,49.20
2019-02-24T01:57:57.683Z,49.90
2019-02-24T02:00:25.176Z,38.57
2019-02-24T02:02:52.705Z,42.00
2019-02-24T02:05:20.265Z,40.37
2019-02-24T02:07:47.746Z,33.10
2019-02-24T02:10:15.260Z,42.90
2019-02-24T02:12:42.784Z,40.43
2019-02-24T02:15:12.105Z,35.20
2019-02-24T02:17:39.597Z,45.27
2019-02-24T02:20:07.295Z,42.60
2019-02-24T02:22:34.806Z,42.57
2019-02-24T02:25:02.319Z,43.03
2019-02-24T02:27:29.867Z,40.57
2019-02-24T02:29:57.365Z,37.63
2019-02-24T02:32:24.849Z,40.27
2019-02-24T02:34:52.393Z,32.03
2019-02-24T02:37:19.875Z,38.57
2019-02-24T02:39:47.371Z,30.20
2019-02-24T02:42:14.889Z,40.60
2019-02-24T02:44:42.423Z,39.77
2019-02-24T02:47:09.925Z,43.17
2019-02-24T02:49:37.407Z,44.63
2019-02-24T02:52:04.957Z,42.77
2019-02-24T02:54:32.435Z,44.77
2019-02-24T02:56:59.935Z,42.30
2019-02-24T02:59:27.443Z,43.23
2019-02-24T03:01:54.970Z,38.70
2019-02-24T03:04:22.476Z,41.00
2019-02-24T03:06:58.518Z,52.30
2019-02-24T03:09:26.021Z,50.67
2019-02-24T03:11:53.551Z,39.87
2019-02-24T03:14:21.037Z,44.37
2019-02-24T03:16:48.536Z,43.30
2019-02-24T03:19:16.089Z,45.87
2019-02-24T03:21:43.583Z,42.40
2019-02-24T03:24:11.094Z,49.00
2019-02-24T03:26:38.662Z,48.47
2019-02-24T03:29:06.171Z,48.63
2019-02-24T03:31:33.656Z,49.50
2019-02-24T03:34:01.182Z,50.40
2019-02-24T03:36:28.753Z,53.00
2019-02-24T03:38:56.277Z,47.80
2019-02-24T03:41:23.768Z,49.33
2019-02-24T03:43:51.290Z,56.17
2019-02-24T03:46:18.775Z,53.43
2019-02-24T03:48:46.340Z,60.23
2019-02-24T03:51:13.882Z,54.73
2019-02-24T03:53:41.376Z,53.67
2019-02-24T03:56:08.883Z,51.80
2019-02-24T03:58:36.418Z,52.40
2019-02-24T04:01:03.910Z,59.10
2019-02-24T04:03:31.518Z,60.33
2019-02-24T04:05:59.031Z,49.63
2019-02-24T04:08:26.526Z,45.87
2019-02-24T04:10:54.051Z,50.73
2019-02-24T04:13:21.580Z,54.40
2019-02-24T04:15:49.079Z,58.23
2019-02-24T04:18:16.592Z,59.03
2019-02-24T04:20:44.108Z,42.17
2019-02-24T04:23:11.589Z,48.90
2019-02-24T04:25:39.114Z,59.73
2019-02-24T04:28:06.659Z,54.43
2019-02-24T04:30:34.144Z,62.00
2019-02-24T04:33:01.663Z,53.07
2019-02-24T04:35:29.204Z,46.47
2019-02-24T04:37:56.707Z,57.10
2019-02-24T04:40:24.196Z,53.97
2019-02-24T04:42:51.733Z,53.80
2019-02-24T04:45:19.214Z,57.80
2019-02-24T04:47:47.769Z,57.07
2019-02-24T04:50:15.317Z,54.57
2019-02-24T04:52:42.916Z,59.40
2019-02-24T04:55:10.426Z,51.73
2019-02-24T04:57:37.899Z,56.53
2019-02-24T05:00:06.032Z,58.33
2019-02-24T05:02:33.523Z,55.53
2019-02-24T05:05:01.021Z,60.03
2019-02-24T05:07:28.573Z,54.80
2019-02-24T05:09:56.057Z,64.07
2019-02-24T05:12:23.552Z,62.67
2019-02-24T05:14:51.037Z,61.40
2019-02-24T05:17:18.591Z,54.27
2019-02-24T05:19:46.162Z,53.97
2019-02-24T05:22:13.640Z,56.27
2019-02-24T05:24:41.171Z,55.30
2019-02-24T05:27:08.693Z,48.90
2019-02-24T05:29:45.066Z,58.80
2019-02-24T05:32:05.528Z,54.67
2019-02-24T05:34:33.045Z,50.00
2019-02-24T05:37:00.580Z,53.10
2019-02-24T05:39:28.168Z,49.17
2019-02-24T05:41:55.671Z,55.57
2019-02-24T05:44:23.168Z,57.53
2019-02-24T05:46:50.725Z,57.47
2019-02-24T05:49:18.280Z,55.17
2019-02-24T05:51:45.822Z,51.27
2019-02-24T05:54:13.452Z,54.20
2019-02-24T05:56:40.949Z,56.30
2019-02-24T05:59:08.452Z,63.43
2019-02-24T06:01:35.994Z,47.57
2019-02-24T06:04:03.492Z,53.47
2019-02-24T06:06:31.031Z,46.70
2019-02-24T06:08:58.569Z,55.13
2019-02-24T06:11:26.089Z,51.97
2019-02-24T06:13:53.578Z,49.93
2019-02-24T06:16:21.117Z,54.50
2019-02-24T06:18:48.635Z,49.77
2019-02-24T06:21:16.188Z,47.13
2019-02-24T06:23:43.727Z,57.23
2019-02-24T06:26:11.235Z,41.90
2019-02-24T06:28:38.745Z,54.00
2019-02-24T06:31:06.300Z,60.90
2019-02-24T06:33:33.816Z,53.20
2019-02-24T06:36:01.336Z,54.50
2019-02-24T06:38:28.880Z,51.67
2019-02-24T06:40:56.395Z,56.93
2019-02-24T06:43:23.882Z,49.93
2019-02-24T06:45:51.390Z,46.27
2019-02-24T06:48:18.921Z,46.30
2019-02-24T06:50:58.561Z,45.80
2019-02-24T06:53:26.143Z,53.13
2019-02-24T06:55:53.656Z,46.07
2019-02-24T06:58:21.196Z,48.93
2019-02-24T07:00:48.676Z,46.47
2019-02-24T07:03:16.186Z,48.63
2019-02-24T07:05:43.762Z,48.63
2019-02-24T07:08:11.261Z,50.00
2019-02-24T07:10:38.759Z,52.47
2019-02-24T07:13:06.382Z,52.53
2019-02-24T07:15:33.884Z,48.57
2019-02-24T07:18:01.386Z,55.03
2019-02-24T07:20:28.926Z,59.20
2019-02-24T07:22:56.405Z,50.23
2019-02-24T07:25:23.936Z,56.20
2019-02-24T07:27:51.446Z,52.73
2019-02-24T07:30:23.531Z,46.33
2019-02-24T07:32:48.246Z,46.30
2019-02-24T07:35:15.788Z,57.73
2019-02-24T07:37:43.300Z,45.97
2019-02-24T07:40:10.817Z,161.60
2019-02-24T07:42:38.356Z,196.07
2019-02-24T07:45:05.848Z,48.33
2019-02-24T07:47:33.332Z,47.60
2019-02-24T07:50:00.827Z,67.90
2019-02-24T07:52:28.376Z,45.30
2019-02-24T07:54:55.861Z,52.97
2019-02-24T07:57:23.384Z,51.83
2019-02-24T07:59:50.924Z,47.53
2019-02-24T08:02:18.429Z,60.20
2019-02-24T08:04:45.956Z,56.60
2019-02-24T08:07:13.494Z,110.73
2019-02-24T08:09:41.014Z,48.63
2019-02-24T08:12:08.515Z,47.40
2019-02-24T08:14:36.104Z,60.03
2019-02-24T08:17:03.606Z,51.67
2019-02-24T08:19:31.120Z,38.43
2019-02-24T08:21:58.656Z,47.07
2019-02-24T08:24:26.210Z,42.90
2019-02-24T08:26:53.708Z,47.80
2019-02-24T08:29:21.206Z,53.70
2019-02-24T08:31:48.734Z,39.97
2019-02-24T08:34:16.280Z,60.10
2019-02-24T08:36:43.778Z,37.13
2019-02-24T08:39:11.302Z,46.27
2019-02-24T08:41:38.803Z,44.23
2019-02-24T08:44:06.296Z,40.73
2019-02-24T08:46:33.918Z,44.13
2019-02-24T08:49:01.409Z,37.60
2019-02-24T08:51:28.915Z,45.37
2019-02-24T08:53:56.461Z,43.10
2019-02-24T08:56:23.992Z,38.23
2019-02-24T08:58:51.501Z,48.07
2019-02-24T09:01:19.164Z,32.47
2019-02-24T09:03:46.701Z,45.83
2019-02-24T09:06:14.244Z,43.93
2019-02-24T09:08:41.800Z,47.53
2019-02-24T09:11:09.324Z,38.73
2019-02-24T09:13:36.813Z,38.33
2019-02-24T09:16:04.389Z,35.83
2019-02-24T09:18:31.936Z,44.17
2019-02-24T09:20:59.473Z,40.00
2019-02-24T09:23:26.998Z,50.13
2019-02-24T09:25:54.558Z,32.97
2019-02-24T09:28:22.102Z,41.87
2019-02-24T09:30:49.646Z,42.63
2019-02-24T09:33:17.226Z,49.20
2019-02-24T09:35:44.810Z,39.87
2019-02-24T09:38:12.296Z,41.57
2019-02-24T09:40:39.826Z,42.77
2019-02-24T09:43:07.355Z,39.97
2019-02-24T09:45:34.847Z,31.67
2019-02-24T09:48:02.406Z,37.47
2019-02-24T09:50:29.930Z,40.87
2019-02-24T09:52:57.490Z,52.97
2019-02-24T09:55:24.992Z,49.53
2019-02-24T09:57:52.528Z,40.07
2019-02-24T10:00:21.963Z,39.00
2019-02-24T10:02:49.418Z,42.23
2019-02-24T10:05:16.922Z,50.93
2019-02-24T10:07:44.408Z,40.33
2019-02-24T10:10:11.996Z,42.07
2019-02-24T10:12:39.517Z,38.10
2019-02-24T10:15:07.278Z,37.37
2019-02-24T10:17:34.803Z,42.30
2019-02-24T10:20:02.338Z,38.00
2019-02-24T10:22:29.940Z,41.63
2019-02-24T10:24:57.444Z,39.93
2019-02-24T10:27:24.950Z,32.47
2019-02-24T10:29:52.493Z,40.23
2019-02-24T10:32:20.013Z,38.73
2019-02-24T10:34:47.530Z,40.47
2019-02-24T10:37:15.090Z,36.90
2019-02-24T10:39:42.577Z,39.80
2019-02-24T10:42:10.112Z,36.23
2019-02-24T10:44:37.643Z,31.70
2019-02-24T10:47:05.209Z,32.13
2019-02-24T10:49:32.747Z,44.00
2019-02-24T10:52:00.298Z,39.97
2019-02-24T10:54:27.786Z,77.40
2019-02-24T10:56:55.324Z,44.67
2019-02-24T10:59:22.810Z,43.03
2019-02-24T11:01:50.315Z,39.10
2019-02-24T11:04:17.840Z,35.33
2019-02-24T11:06:45.376Z,33.47
2019-02-24T11:09:12.934Z,39.17
2019-02-24T11:11:40.583Z,38.10
2019-02-24T11:14:08.148Z,36.87
2019-02-24T11:16:35.665Z,33.43
2019-02-24T11:19:03.221Z,42.07
2019-02-24T11:21:30.754Z,39.37
2019-02-24T11:23:58.253Z,40.37
2019-02-24T11:26:25.788Z,46.87
2019-02-24T11:28:53.354Z,38.47
2019-02-24T11:31:21.234Z,39.13
2019-02-24T11:33:48.742Z,39.80
2019-02-24T11:36:16.300Z,39.10
2019-02-24T11:38:43.830Z,40.13
2019-02-24T11:41:11.430Z,36.13
2019-02-24T11:43:38.904Z,37.77
2019-02-24T11:46:06.452Z,35.87
2019-02-24T11:48:33.988Z,38.93
2019-02-24T11:51:01.478Z,37.47
2019-02-24T11:53:29.036Z,41.00
2019-02-24T11:55:56.560Z,42.37
2019-02-24T11:58:24.055Z,37.27
2019-02-24T12:00:51.598Z,35.13
2019-02-24T12:03:19.133Z,34.73
2019-02-24T12:05:46.678Z,36.27
2019-02-24T12:08:14.197Z,37.87
2019-02-24T12:10:41.768Z,45.43
2019-02-24T12:13:09.279Z,36.93
2019-02-24T12:15:36.808Z,35.43
2019-02-24T12:18:04.360Z,40.00
2019-02-24T12:20:31.953Z,45.50
2019-02-24T12:22:59.442Z,38.67
2019-02-24T12:25:26.999Z,35.87
2019-02-24T12:27:54.514Z,36.47
2019-02-24T12:30:21.987Z,37.20
2019-02-24T12:32:49.506Z,43.03
2019-02-24T12:35:17.022Z,38.60
2019-02-24T12:37:44.510Z,44.23
2019-02-24T12:40:12.094Z,38.50
2019-02-24T12:42:39.580Z,42.03
2019-02-24T12:45:07.102Z,37.07
2019-02-24T12:47:34.736Z,43.73
2019-02-24T12:50:03.581Z,58.23
2019-02-24T12:52:31.309Z,39.40
2019-02-24T12:54:58.838Z,44.60
2019-02-24T12:57:26.430Z,45.63
2019-02-24T12:59:53.952Z,47.53
2019-02-24T13:02:21.458Z,42.20
2019-02-24T13:04:49.077Z,66.53
2019-02-24T13:07:16.726Z,57.93
2019-02-24T13:09:44.234Z,46.03
2019-02-24T13:12:11.896Z,49.10
2019-02-24T13:14:39.481Z,54.13
2019-02-24T13:17:07.017Z,59.53
2019-02-24T13:19:34.864Z,47.90
2019-02-24T13:22:02.535Z,59.07
2019-02-24T13:24:30.102Z,63.27
2019-02-24T13:26:57.624Z,46.87
2019-02-24T13:29:25.260Z,56.03
2019-02-24T13:31:52.802Z,44.10
2019-02-24T13:34:20.328Z,50.57
2019-02-24T13:36:47.938Z,61.63
2019-02-24T13:39:15.484Z,40.97
2019-02-24T13:41:43.004Z,38.93
2019-02-24T13:44:10.638Z,34.60
2019-02-24T13:46:38.276Z,54.70
2019-02-24T13:49:05.787Z,72.40
2019-02-24T13:51:33.400Z,45.73
2019-02-24T13:54:00.936Z,47.37
2019-02-24T13:56:28.470Z,44.33
2019-02-24T13:58:56.139Z,49.07
2019-02-24T14:01:23.952Z,44.90
2019-02-24T14:03:51.498Z,57.13
2019-02-24T14:06:20.386Z,47.63
2019-02-24T14:08:48.044Z,48.27
2019-02-24T14:11:15.624Z,48.40
2019-02-24T14:13:43.264Z,56.43
2019-02-24T14:16:10.784Z,64.10
2019-02-24T14:18:38.396Z,53.23
2019-02-24T14:21:05.910Z,47.73
2019-02-24T14:23:33.467Z,48.27
2019-02-24T14:26:01.026Z,88.90
2019-02-24T14:28:28.581Z,52.80
2019-02-24T14:30:56.161Z,49.07
2019-02-24T14:33:23.977Z,54.00
2019-02-24T14:35:51.602Z,54.97
2019-02-24T14:38:19.176Z,48.17
2019-02-24T14:40:46.749Z,51.03
2019-02-24T14:43:14.289Z,53.63
2019-02-24T14:45:49.445Z,54.40
2019-02-24T14:48:11.261Z,50.80
2019-02-24T14:50:38.818Z,57.50
2019-02-24T14:53:06.435Z,50.93
2019-02-24T14:55:33.964Z,55.40
2019-02-24T14:58:01.520Z,56.43
2019-02-24T15:00:29.115Z,61.90
2019-02-24T15:02:56.640Z,52.60
2019-02-24T15:05:24.328Z,66.30
2019-02-24T15:07:51.926Z,63.23
2019-02-24T15:10:19.713Z,56.37
2019-02-24T15:12:47.387Z,60.30
2019-02-24T15:15:16.299Z,76.20
2019-02-24T15:17:43.968Z,66.33
2019-02-24T15:20:13.878Z,62.83
2019-02-24T15:22:41.407Z,58.73
2019-02-24T15:25:10.107Z,60.07
2019-02-24T15:27:37.686Z,57.53
2019-02-24T15:30:08.868Z,50.27
2019-02-24T15:32:36.370Z,52.33
2019-02-24T15:35:04.058Z,49.20
2019-02-24T15:37:31.575Z,50.60
2019-02-24T15:39:59.136Z,55.80
2019-02-24T15:42:26.679Z,45.33
2019-02-24T15:44:54.271Z,53.63
2019-02-24T15:47:21.798Z,66.47
2019-02-24T15:49:49.344Z,50.47
2019-02-24T15:52:16.937Z,65.97
2019-02-24T15:54:44.497Z,66.43
2019-02-24T15:57:12.043Z,65.70
2019-02-24T15:59:39.632Z,72.70
2019-02-24T16:02:07.151Z,77.00
2019-02-24T16:04:34.678Z,116.07
2019-02-24T16:07:02.377Z,80.60
2019-02-24T16:09:30.072Z,76.07
2019-02-24T16:11:57.672Z,82.13
2019-02-24T16:14:25.565Z,86.60
2019-02-24T16:16:53.096Z,82.40
2019-02-24T16:19:20.641Z,82.73
2019-02-24T16:21:49.582Z,72.97
2019-02-24T16:24:17.211Z,62.73
2019-02-24T16:26:44.904Z,54.60
2019-02-24T16:29:12.415Z,60.20
2019-02-24T16:31:40.092Z,54.13
2019-02-24T16:34:07.675Z,68.40
2019-02-24T16:36:35.247Z,63.07
2019-02-24T16:39:03.557Z,68.10
2019-02-24T16:41:31.275Z,64.10
2019-02-24T16:43:59.744Z,63.50
2019-02-24T16:46:27.355Z,87.17
2019-02-24T16:48:54.869Z,141.03
2019-02-24T16:51:22.479Z,129.53
2019-02-24T16:53:50.069Z,121.13
2019-02-24T16:56:17.595Z,121.50
2019-02-24T16:58:45.235Z,114.73
2019-02-24T17:01:12.738Z,112.50
2019-02-24T17:03:40.284Z,99.87
2019-02-24T17:06:07.827Z,108.43
2019-02-24T17:08:35.333Z,103.27
2019-02-24T17:11:07.405Z,93.30
2019-02-24T17:13:32.354Z,101.23
2019-02-24T17:15:59.869Z,98.13
2019-02-24T17:18:27.457Z,87.37
2019-02-24T17:20:55.008Z,85.93
2019-02-24T17:23:22.549Z,79.60
2019-02-24T17:25:50.087Z,69.77
2019-02-24T17:28:17.649Z,65.60
2019-02-24T17:30:45.163Z,72.27
2019-02-24T17:33:12.720Z,67.60
2019-02-24T17:35:40.310Z,47.67
2019-02-24T17:38:07.823Z,48.47
2019-02-24T17:40:35.337Z,56.03
2019-02-24T17:43:03.878Z,46.80
2019-02-24T17:45:31.349Z,46.00
2019-02-24T17:47:59.096Z,53.23
2019-02-24T17:50:26.682Z,55.17
2019-02-24T17:52:54.235Z,61.90
2019-02-24T17:55:22.350Z,59.57
2019-02-24T17:57:49.874Z,60.07
2019-02-24T18:00:20.755Z,57.40
2019-02-24T18:02:48.404Z,64.47
2019-02-24T18:05:15.921Z,61.47
2019-02-24T18:07:43.429Z,70.57
2019-02-24T18:10:11.771Z,67.17
2019-02-24T18:12:39.283Z,53.83
2019-02-24T18:15:08.519Z,62.40
2019-02-24T18:17:36.043Z,60.57
2019-02-24T18:20:03.828Z,60.23
2019-02-24T18:22:31.329Z,70.50
2019-02-24T18:25:03.268Z,71.40
2019-02-24T18:27:28.240Z,93.07
2019-02-24T18:29:56.092Z,73.30
2019-02-24T18:32:23.610Z,89.53
2019-02-24T18:34:51.105Z,91.63
2019-02-24T18:37:18.625Z,96.87
2019-02-24T18:39:46.139Z,82.00
2019-02-24T18:42:13.759Z,85.37
2019-02-24T18:44:42.065Z,79.47
2019-02-24T18:47:09.597Z,76.03
2019-02-24T18:49:37.106Z,78.70
2019-02-24T18:52:04.671Z,73.00
2019-02-24T18:54:34.786Z,93.97
2019-02-24T18:57:01.499Z,90.43
2019-02-24T18:59:29.113Z,96.27
2019-02-24T19:01:56.607Z,86.20
2019-02-24T19:04:24.121Z,92.00
2019-02-24T19:06:51.692Z,83.20
2019-02-24T19:09:19.205Z,92.83
2019-02-24T19:11:46.789Z,95.37
2019-02-24T19:14:14.373Z,93.03
2019-02-24T19:16:41.898Z,80.67
2019-02-24T19:19:09.466Z,89.37
2019-02-24T19:21:36.987Z,91.13
2019-02-24T19:24:04.561Z,95.17
2019-02-24T19:26:33.198Z,96.50
2019-02-24T19:29:00.683Z,100.87
2019-02-24T19:31:30.247Z,94.47
2019-02-24T19:34:06.498Z,96.73
2019-02-24T19:36:27.690Z,106.70
2019-02-24T19:38:55.233Z,106.47
2019-02-24T19:41:22.799Z,99.87
2019-02-24T19:43:50.329Z,107.83
2019-02-24T19:46:17.873Z,103.10
2019-02-24T19:48:45.431Z,107.03
2019-02-24T19:51:14.863Z,110.37
2019-02-24T19:53:42.909Z,111.83
2019-02-24T19:56:10.495Z,112.70
2019-02-24T19:58:38.033Z,102.60
2019-02-24T20:01:05.649Z,106.90
2019-02-24T20:03:33.155Z,114.63
2019-02-24T20:06:00.697Z,113.20
2019-02-24T20:08:28.245Z,133.53
2019-02-24T20:10:55.755Z,109.07
2019-02-24T20:13:23.339Z,112.37
2019-02-24T20:15:50.866Z,98.93
2019-02-24T20:18:18.372Z,109.80
2019-02-24T20:20:45.897Z,109.10
2019-02-24T20:23:13.403Z,100.20
2019-02-24T20:25:40.913Z,96.17
2019-02-24T20:28:08.538Z,109.33
2019-02-24T20:30:36.098Z,94.97
2019-02-24T20:33:03.801Z,100.80
2019-02-24T20:35:31.408Z,98.10
2019-02-24T20:37:58.919Z,109.70
2019-02-24T20:40:26.453Z,94.93
2019-02-24T20:42:53.959Z,107.30
2019-02-24T20:45:21.482Z,104.30
2019-02-24T20:47:49.148Z,106.77
2019-02-24T20:50:17.515Z,98.93
2019-02-24T20:52:45.039Z,84.97
2019-02-24T20:55:12.782Z,120.70
2019-02-24T20:57:40.290Z,113.10
2019-02-24T21:00:25.996Z,126.53
2019-02-24T21:02:53.504Z,133.73
2019-02-24T21:05:21.034Z,139.57
2019-02-24T21:07:48.619Z,112.77
2019-02-24T21:10:16.154Z,97.03
2019-02-24T21:12:44.134Z,97.77
2019-02-24T21:15:11.957Z,113.53
2019-02-24T21:17:39.509Z,104.30
2019-02-24T21:20:09.583Z,121.13
2019-02-24T21:22:37.057Z,112.07
2019-02-24T21:25:04.683Z,118.47
2019-02-24T21:27:32.198Z,117.33
2019-02-24T21:29:59.734Z,102.07
2019-02-24T21:32:27.333Z,89.90
2019-02-24T21:34:54.851Z,110.97
2019-02-24T21:37:22.353Z,107.90
2019-02-24T21:39:49.917Z,97.43
2019-02-24T21:42:17.423Z,101.93
2019-02-24T21:44:44.929Z,100.20
2019-02-24T21:47:12.499Z,100.17
2019-02-24T21:49:40.025Z,90.90
2019-02-24T21:52:07.525Z,89.50
2019-02-24T21:54:35.073Z,89.80
2019-02-24T21:57:02.590Z,95.83
2019-02-24T21:59:36.847Z,105.93
2019-02-24T22:01:59.443Z,106.47
2019-02-24T22:04:26.951Z,103.83
2019-02-24T22:06:54.495Z,89.70
2019-02-24T22:09:21.983Z,90.97
2019-02-24T22:11:49.499Z,93.23
2019-02-24T22:14:17.054Z,100.10
2019-02-24T22:16:44.550Z,87.93
2019-02-24T22:19:12.046Z,82.90
2019-02-24T22:21:39.568Z,88.53
2019-02-24T22:24:07.090Z,88.43
2019-02-24T22:26:34.605Z,98.60
2019-02-24T22:29:02.129Z,89.53
2019-02-24T22:31:29.679Z,96.73
2019-02-24T22:33:57.158Z,95.13
2019-02-24T22:36:24.656Z,98.10
2019-02-24T22:38:52.160Z,91.67
2019-02-24T22:41:19.708Z,89.83
2019-02-24T22:43:47.247Z,85.33
2019-02-24T22:46:14.753Z,82.10
2019-02-24T22:48:42.289Z,72.77
2019-02-24T22:51:09.784Z,83.07
2019-02-24T22:53:37.280Z,72.53
2019-02-24T22:56:04.804Z,69.30
2019-02-24T22:58:32.324Z,73.77
2019-02-24T23:01:10.031Z,77.77
2019-02-24T23:03:39.502Z,73.97
2019-02-24T23:06:07.040Z,72.97
2019-02-24T23:08:34.538Z,76.20
2019-02-24T23:11:02.043Z,83.40
2019-02-24T23:13:29.736Z,79.73
2019-02-24T23:15:57.240Z,82.37
2019-02-24T23:18:24.745Z,82.70
2019-02-24T23:20:52.256Z,77.00
2019-02-24T23:23:19.738Z,79.63
2019-02-24T23:25:47.262Z,73.30
2019-02-24T23:28:14.768Z,77.10
2019-02-24T23:30:42.265Z,93.97
2019-02-24T23:33:09.777Z,89.83
2019-02-24T23:35:37.268Z,81.70
2019-02-24T23:38:04.782Z,85.87
2019-02-24T23:40:32.268Z,81.47
2019-02-24T23:42:59.778Z,78.67
2019-02-24T23:45:27.321Z,81.43
2019-02-24T23:47:54.886Z,87.40
2019-02-24T23:50:22.366Z,86.03
2019-02-24T23:52:49.882Z,89.40
2019-02-24T23:55:17.458Z,74.27
2019-02-24T23:57:44.926Z,68.07
